createdAt,value
2019-05-22T00:00:06.844Z,76.46
2019-05-22T00:02:40.492Z,76.54
2019-05-22T00:05:17.753Z,76.34
2019-05-22T00:07:46.438Z,76.50
2019-05-22T00:10:22.044Z,76.53
2019-05-22T00:12:49.028Z,76.07
2019-05-22T00:15:18.118Z,76.42
2019-05-22T00:17:45.181Z,76.95
2019-05-22T00:20:13.782Z,76.71
2019-05-22T00:22:44.894Z,76.52
2019-05-22T00:25:17.587Z,76.52
2019-05-22T00:27:46.383Z,76.46
2019-05-22T00:30:15.796Z,76.39
2019-05-22T00:32:43.893Z,76.27
2019-05-22T00:35:11.866Z,76.27
2019-05-22T00:37:39.884Z,75.97
2019-05-22T00:40:08.683Z,75.97
2019-05-22T00:42:40.233Z,76.34
2019-05-22T00:45:11.745Z,76.02
2019-05-22T00:47:41.011Z,76.02
2019-05-22T00:50:11.797Z,75.83
2019-05-22T00:52:44.416Z,75.74
2019-05-22T00:55:21.611Z,76.14
2019-05-22T00:58:03.305Z,76.14
2019-05-22T01:00:38.920Z,76.07
2019-05-22T01:03:06.811Z,75.95
2019-05-22T01:05:36.437Z,75.52
2019-05-22T01:08:05.629Z,74.99
2019-05-22T01:10:34.434Z,75.21
2019-05-22T01:13:03.673Z,75.25
2019-05-22T01:15:32.074Z,75.12
2019-05-22T01:18:03.644Z,74.85
2019-05-22T01:20:32.514Z,74.61
2019-05-22T01:23:02.109Z,74.17
2019-05-22T01:25:30.718Z,74.51
2019-05-22T01:28:00.950Z,74.64
2019-05-22T01:30:39.378Z,74.44
2019-05-22T01:33:11.191Z,74.42
2019-05-22T01:35:43.617Z,74.88
2019-05-22T01:38:12.095Z,74.71
2019-05-22T01:40:47.386Z,74.60
2019-05-22T01:43:17.089Z,73.84
2019-05-22T01:45:52.017Z,74.02
2019-05-22T01:48:25.302Z,74.26
2019-05-22T01:50:54.714Z,74.43
2019-05-22T01:53:26.415Z,74.32
2019-05-22T01:55:58.201Z,74.41
2019-05-22T01:58:27.630Z,74.34
2019-05-22T02:00:55.476Z,74.35
2019-05-22T02:03:23.290Z,74.55
2019-05-22T02:05:50.911Z,74.76
2019-05-22T02:08:20.052Z,74.83
2019-05-22T02:10:49.331Z,74.95
2019-05-22T02:13:23.934Z,74.36
2019-05-22T02:15:51.524Z,74.36
2019-05-22T02:18:22.178Z,74.77
2019-05-22T02:20:49.348Z,74.68
2019-05-22T02:23:17.114Z,74.72
2019-05-22T02:25:44.369Z,74.46
2019-05-22T02:28:12.050Z,74.58
2019-05-22T02:30:41.955Z,74.74
2019-05-22T02:33:09.653Z,74.45
2019-05-22T02:35:36.976Z,74.56
2019-05-22T02:38:05.784Z,74.56
2019-05-22T02:40:36.611Z,74.36
2019-05-22T02:43:06.303Z,74.48
2019-05-22T02:45:33.394Z,74.35
2019-05-22T02:48:01.764Z,73.92
2019-05-22T02:50:28.912Z,74.00
2019-05-22T02:52:56.584Z,74.00
2019-05-22T02:55:25.433Z,73.45
2019-05-22T02:57:52.424Z,73.36
2019-05-22T03:00:21.815Z,73.47
2019-05-22T03:02:51.385Z,73.44
2019-05-22T03:05:20.114Z,73.19
2019-05-22T03:07:47.692Z,73.24
2019-05-22T03:10:17.880Z,73.13
2019-05-22T03:12:45.416Z,72.61
2019-05-22T03:15:15.536Z,72.50
2019-05-22T03:17:44.721Z,71.98
2019-05-22T03:20:17.907Z,71.67
2019-05-22T03:23:16.141Z,71.70
2019-05-22T03:25:43.890Z,71.92
2019-05-22T03:28:12.165Z,71.41
2019-05-22T03:30:41.338Z,71.38
2019-05-22T03:33:09.113Z,71.28
2019-05-22T03:35:48.083Z,71.21
2019-05-22T03:38:17.403Z,71.22
2019-05-22T03:40:44.957Z,71.20
2019-05-22T03:43:19.899Z,71.30
2019-05-22T03:45:48.533Z,71.75
2019-05-22T03:48:16.249Z,71.75
2019-05-22T03:50:43.471Z,71.49
2019-05-22T03:53:15.852Z,71.40
2019-05-22T03:55:44.084Z,70.60
2019-05-22T03:58:11.148Z,71.12
2019-05-22T04:00:42.953Z,70.91
2019-05-22T04:03:08.017Z,70.71
2019-05-22T04:05:34.979Z,70.99
2019-05-22T04:08:05.416Z,70.97
2019-05-22T04:10:40.970Z,70.78
2019-05-22T04:13:06.573Z,70.81
2019-05-22T04:15:33.714Z,70.40
2019-05-22T04:18:12.227Z,70.05
2019-05-22T04:20:39.490Z,70.27
2019-05-22T04:23:06.602Z,70.81
2019-05-22T04:25:33.987Z,70.68
2019-05-22T04:28:01.758Z,70.68
2019-05-22T04:30:29.157Z,70.75
2019-05-22T04:32:56.295Z,70.66
2019-05-22T04:35:23.763Z,70.66
2019-05-22T04:37:50.734Z,70.64
2019-05-22T04:40:54.939Z,70.97
2019-05-22T04:43:23.681Z,70.43
2019-05-22T04:45:51.483Z,70.32
2019-05-22T04:48:19.284Z,70.55
2019-05-22T04:50:47.077Z,70.27
2019-05-22T04:53:14.141Z,70.21
2019-05-22T04:55:41.241Z,69.35
2019-05-22T04:58:10.935Z,69.67
2019-05-22T05:00:39.209Z,69.38
2019-05-22T05:03:08.213Z,69.46
2019-05-22T05:05:39.371Z,69.76
2019-05-22T05:08:06.839Z,70.00
2019-05-22T05:10:34.765Z,69.94
2019-05-22T05:13:01.829Z,70.06
2019-05-22T05:15:28.777Z,70.64
2019-05-22T05:17:55.751Z,71.15
2019-05-22T05:20:23.048Z,70.97
2019-05-22T05:22:50.160Z,70.85
2019-05-22T05:25:18.884Z,70.44
2019-05-22T05:27:46.027Z,70.44
2019-05-22T05:30:14.070Z,69.99
2019-05-22T05:32:42.756Z,69.99
2019-05-22T05:35:10.921Z,69.66
2019-05-22T05:37:39.805Z,69.47
2019-05-22T05:40:38.810Z,69.14
2019-05-22T05:43:07.757Z,68.87
2019-05-22T05:45:36.252Z,68.87
2019-05-22T05:48:06.943Z,68.70
2019-05-22T05:50:40.019Z,68.60
2019-05-22T05:53:08.165Z,68.67
2019-05-22T05:56:00.098Z,68.67
2019-05-22T05:58:28.887Z,68.57
2019-05-22T06:01:02.225Z,68.54
2019-05-22T06:03:31.460Z,68.62
2019-05-22T06:06:01.781Z,68.97
2019-05-22T06:08:28.883Z,68.93
2019-05-22T06:11:40.295Z,68.93
2019-05-22T06:14:09.466Z,69.26
2019-05-22T06:17:35.570Z,69.26
2019-05-22T06:20:08.291Z,68.79
2019-05-22T06:22:35.457Z,68.74
2019-05-22T06:25:05.890Z,67.92
2019-05-22T06:27:43.630Z,67.54
2019-05-22T06:30:16.339Z,67.73
2019-05-22T06:33:25.008Z,67.46
2019-05-22T06:35:54.688Z,67.46
2019-05-22T06:39:02.407Z,67.44
2019-05-22T06:41:34.389Z,67.02
2019-05-22T06:44:28.373Z,67.27
2019-05-22T06:46:55.565Z,66.96
2019-05-22T06:49:37.058Z,66.99
2019-05-22T06:52:05.095Z,67.02
2019-05-22T06:54:32.768Z,66.38
2019-05-22T06:56:59.957Z,66.15
2019-05-22T06:59:27.107Z,66.04
2019-05-22T07:02:01.502Z,66.04
2019-05-22T07:04:24.662Z,65.32
2019-05-22T07:06:51.829Z,65.21
2019-05-22T07:09:18.802Z,65.03
2019-05-22T07:11:46.578Z,65.40
2019-05-22T07:14:15.054Z,65.40
2019-05-22T07:16:42.580Z,66.17
2019-05-22T07:19:09.661Z,66.68
2019-05-22T07:21:37.613Z,66.88
2019-05-22T07:24:04.705Z,66.70
2019-05-22T07:26:31.879Z,66.53
2019-05-22T07:29:02.692Z,66.00
2019-05-22T07:31:27.881Z,66.03
2019-05-22T07:33:54.848Z,65.88
2019-05-22T07:36:23.134Z,65.19
2019-05-22T07:38:50.216Z,64.25
2019-05-22T07:41:17.228Z,63.74
2019-05-22T07:43:44.186Z,62.28
2019-05-22T07:46:11.281Z,62.22
2019-05-22T07:48:38.661Z,61.67
2019-05-22T07:51:06.055Z,61.80
2019-05-22T07:53:33.124Z,61.38
2019-05-22T07:56:04.207Z,61.33
2019-05-22T07:58:33.190Z,60.48
2019-05-22T08:01:01.647Z,60.74
2019-05-22T08:03:30.171Z,60.45
2019-05-22T08:05:58.879Z,60.97
2019-05-22T08:08:29.014Z,60.28
2019-05-22T08:10:57.098Z,60.57
2019-05-22T08:13:25.860Z,60.25
2019-05-22T08:15:52.897Z,60.89
2019-05-22T08:18:20.196Z,61.08
2019-05-22T08:20:47.336Z,60.40
2019-05-22T08:23:15.209Z,60.68
2019-05-22T08:25:42.260Z,60.97
2019-05-22T08:28:09.566Z,60.95
2019-05-22T08:30:36.861Z,60.45
2019-05-22T08:33:08.552Z,61.19
2019-05-22T08:35:36.145Z,61.38
2019-05-22T08:38:06.547Z,61.26
2019-05-22T08:40:34.516Z,60.94
2019-05-22T08:43:01.816Z,60.99
2019-05-22T08:45:29.126Z,61.02
2019-05-22T08:47:57.069Z,60.86
2019-05-22T08:50:24.583Z,60.10
2019-05-22T08:52:52.163Z,60.51
2019-05-22T08:55:19.422Z,60.53
2019-05-22T08:57:46.471Z,58.37
2019-05-22T09:00:16.106Z,58.40
2019-05-22T09:02:43.063Z,58.60
2019-05-22T09:05:10.115Z,59.13
2019-05-22T09:07:37.786Z,59.05
2019-05-22T09:10:05.296Z,59.32
2019-05-22T09:12:32.567Z,58.98
2019-05-22T09:14:59.900Z,58.68
2019-05-22T09:17:27.187Z,58.17
2019-05-22T09:19:54.363Z,58.10
2019-05-22T09:22:21.523Z,57.67
2019-05-22T09:24:49.832Z,57.88
2019-05-22T09:27:17.819Z,57.52
2019-05-22T09:29:44.782Z,56.69
2019-05-22T09:32:11.747Z,57.03
2019-05-22T09:34:38.917Z,57.68
2019-05-22T09:37:06.112Z,57.85
2019-05-22T09:39:33.284Z,57.86
2019-05-22T09:42:00.265Z,58.05
2019-05-22T09:44:27.453Z,58.27
2019-05-22T09:46:54.528Z,57.76
2019-05-22T09:49:23.919Z,57.29
2019-05-22T09:51:50.820Z,57.71
2019-05-22T09:54:18.618Z,56.83
2019-05-22T09:56:45.795Z,57.08
2019-05-22T09:59:12.761Z,56.71
2019-05-22T10:01:39.698Z,56.95
2019-05-22T10:04:07.243Z,56.99
2019-05-22T10:06:34.226Z,57.34
2019-05-22T10:09:01.200Z,56.80
2019-05-22T10:11:28.602Z,56.15
2019-05-22T10:13:55.575Z,57.20
2019-05-22T10:16:22.941Z,56.88
2019-05-22T10:18:53.081Z,57.00
2019-05-22T10:21:19.252Z,55.50
2019-05-22T10:23:46.317Z,55.71
2019-05-22T10:26:13.398Z,55.66
2019-05-22T10:28:41.085Z,55.31
2019-05-22T10:31:09.868Z,55.51
2019-05-22T10:33:37.785Z,56.07
2019-05-22T10:36:05.677Z,56.23
2019-05-22T10:38:32.751Z,55.60
2019-05-22T10:41:00.044Z,54.75
2019-05-22T10:43:27.399Z,55.17
2019-05-22T10:45:54.620Z,54.68
2019-05-22T10:48:21.716Z,55.22
2019-05-22T10:50:48.895Z,54.37
2019-05-22T10:53:32.288Z,54.96
2019-05-22T10:55:45.630Z,54.05
2019-05-22T10:58:12.605Z,54.46
2019-05-22T11:00:40.358Z,55.19
2019-05-22T11:03:07.644Z,56.17
2019-05-22T11:05:35.719Z,55.64
2019-05-22T11:08:03.700Z,54.88
2019-05-22T11:10:30.996Z,55.34
2019-05-22T11:12:58.285Z,55.54
2019-05-22T11:15:26.167Z,55.76
2019-05-22T11:17:53.689Z,54.45
2019-05-22T11:20:22.016Z,54.81
2019-05-22T11:22:49.570Z,54.52
2019-05-22T11:25:16.861Z,54.24
2019-05-22T11:27:44.713Z,54.26
2019-05-22T11:30:14.780Z,55.08
2019-05-22T11:32:41.740Z,55.21
2019-05-22T11:35:09.792Z,54.86
2019-05-22T11:37:36.792Z,54.61
2019-05-22T11:40:04.849Z,54.37
2019-05-22T11:42:32.048Z,55.09
2019-05-22T11:44:59.051Z,56.29
2019-05-22T11:47:26.371Z,56.31
2019-05-22T11:49:53.544Z,55.56
2019-05-22T11:52:20.661Z,54.95
2019-05-22T11:54:48.029Z,56.32
2019-05-22T11:57:15.977Z,55.02
2019-05-22T11:59:44.324Z,55.44
2019-05-22T12:02:12.600Z,56.51
2019-05-22T12:04:47.816Z,56.05
2019-05-22T12:07:09.891Z,55.30
2019-05-22T12:09:37.027Z,54.85
2019-05-22T12:12:04.197Z,55.38
2019-05-22T12:14:31.392Z,54.56
2019-05-22T12:16:59.381Z,54.77
2019-05-22T12:19:26.579Z,54.39
2019-05-22T12:21:53.589Z,55.20
2019-05-22T12:24:27.919Z,54.94
2019-05-22T12:26:49.524Z,55.14
2019-05-22T12:29:17.612Z,54.94
2019-05-22T12:31:44.925Z,55.79
2019-05-22T12:34:11.901Z,55.26
2019-05-22T12:36:38.938Z,55.96
2019-05-22T12:39:08.284Z,54.83
2019-05-22T12:41:36.325Z,53.90
2019-05-22T12:44:03.954Z,54.65
2019-05-22T12:46:31.839Z,54.75
2019-05-22T12:48:59.420Z,55.11
2019-05-22T12:51:28.813Z,54.29
2019-05-22T12:53:55.933Z,54.23
2019-05-22T12:56:23.033Z,54.62
2019-05-22T12:58:50.612Z,54.97
2019-05-22T13:01:19.223Z,55.20
2019-05-22T13:03:47.492Z,55.45
2019-05-22T13:06:15.151Z,55.18
2019-05-22T13:08:42.280Z,55.38
2019-05-22T13:11:09.535Z,54.58
2019-05-22T13:13:36.810Z,54.49
2019-05-22T13:16:04.909Z,53.61
2019-05-22T13:18:33.904Z,53.55
2019-05-22T13:21:02.280Z,53.61
2019-05-22T13:23:37.287Z,52.82
2019-05-22T13:26:05.890Z,53.77
2019-05-22T13:28:34.081Z,53.67
2019-05-22T13:31:02.166Z,53.50
2019-05-22T13:33:30.940Z,53.62
2019-05-22T13:35:57.907Z,53.74
2019-05-22T13:38:25.691Z,52.29
2019-05-22T13:40:53.313Z,52.71
2019-05-22T13:43:20.365Z,53.58
2019-05-22T13:45:48.325Z,54.12
2019-05-22T13:48:15.610Z,52.94
2019-05-22T13:50:43.421Z,52.43
2019-05-22T13:53:12.366Z,52.29
2019-05-22T13:55:39.701Z,52.86
2019-05-22T13:58:07.268Z,52.93
2019-05-22T14:00:36.008Z,52.63
2019-05-22T14:03:03.510Z,53.78
2019-05-22T14:05:32.469Z,53.56
2019-05-22T14:08:00.073Z,53.89
2019-05-22T14:10:28.222Z,53.46
2019-05-22T14:12:55.197Z,53.99
2019-05-22T14:15:23.777Z,54.46
2019-05-22T14:17:51.179Z,54.59
2019-05-22T14:20:18.347Z,54.41
2019-05-22T14:22:45.332Z,54.55
2019-05-22T14:25:13.803Z,54.89
2019-05-22T14:27:41.823Z,55.26
2019-05-22T14:30:11.447Z,56.50
2019-05-22T14:32:39.261Z,57.05
2019-05-22T14:35:06.718Z,56.71
2019-05-22T14:37:33.993Z,57.07
2019-05-22T14:40:01.312Z,56.95
2019-05-22T14:42:28.680Z,56.15
2019-05-22T14:44:55.764Z,57.38
2019-05-22T14:47:23.462Z,57.08
2019-05-22T14:49:50.427Z,57.71
2019-05-22T14:52:18.303Z,56.78
2019-05-22T14:54:45.277Z,56.08
2019-05-22T14:57:12.743Z,55.86
2019-05-22T14:59:39.832Z,55.24
2019-05-22T15:02:08.879Z,54.64
2019-05-22T15:04:36.026Z,55.10
2019-05-22T15:07:03.692Z,54.70
2019-05-22T15:09:30.702Z,54.04
2019-05-22T15:11:58.105Z,53.81
2019-05-22T15:14:25.082Z,53.55
2019-05-22T15:16:52.074Z,53.48
2019-05-22T15:19:20.453Z,53.96
2019-05-22T15:21:48.733Z,53.22
2019-05-22T15:24:15.892Z,52.20
2019-05-22T15:26:43.207Z,52.66
2019-05-22T15:29:10.169Z,52.21
2019-05-22T15:31:37.208Z,52.16
2019-05-22T15:34:04.725Z,51.61
2019-05-22T15:36:31.892Z,51.72
2019-05-22T15:38:59.384Z,51.88
2019-05-22T15:41:26.456Z,52.06
2019-05-22T15:43:54.625Z,51.57
2019-05-22T15:46:23.430Z,52.34
2019-05-22T15:48:50.953Z,52.93
2019-05-22T15:51:23.865Z,52.57
2019-05-22T15:53:54.921Z,50.97
2019-05-22T15:56:22.350Z,49.54
2019-05-22T15:58:53.352Z,47.82
2019-05-22T16:01:24.326Z,47.65
2019-05-22T16:03:52.092Z,47.66
2019-05-22T16:06:22.747Z,46.47
2019-05-22T16:08:51.432Z,47.53
2019-05-22T16:11:20.665Z,46.32
2019-05-22T16:13:48.366Z,45.63
2019-05-22T16:16:17.127Z,45.57
2019-05-22T16:18:46.399Z,43.78
2019-05-22T16:21:15.130Z,44.56
2019-05-22T16:23:42.631Z,45.20
2019-05-22T16:26:12.878Z,45.50
2019-05-22T16:28:41.824Z,46.07
2019-05-22T16:31:09.823Z,43.02
2019-05-22T16:33:38.824Z,43.31
2019-05-22T16:36:06.667Z,45.76
2019-05-22T16:38:36.762Z,42.59
2019-05-22T16:41:04.248Z,42.31
2019-05-22T16:43:48.154Z,41.81
2019-05-22T16:46:01.946Z,43.45
2019-05-22T16:48:29.625Z,43.20
2019-05-22T16:50:57.723Z,42.57
2019-05-22T16:53:25.544Z,43.12
2019-05-22T16:55:53.634Z,42.69
2019-05-22T16:58:21.097Z,43.16
2019-05-22T17:00:48.674Z,42.20
2019-05-22T17:03:18.361Z,42.86
2019-05-22T17:05:45.549Z,43.09
2019-05-22T17:08:13.509Z,44.34
2019-05-22T17:10:41.249Z,45.14
2019-05-22T17:13:12.033Z,46.49
2019-05-22T17:15:38.400Z,46.34
2019-05-22T17:18:06.295Z,44.88
2019-05-22T17:20:34.862Z,44.56
2019-05-22T17:23:02.943Z,44.79
2019-05-22T17:25:30.686Z,44.69
2019-05-22T17:27:57.767Z,45.75
2019-05-22T17:30:25.844Z,45.83
2019-05-22T17:32:53.032Z,46.29
2019-05-22T17:35:22.953Z,45.81
2019-05-22T17:37:50.634Z,46.01
2019-05-22T17:40:19.733Z,45.16
2019-05-22T17:42:47.659Z,45.23
2019-05-22T17:45:17.250Z,45.18
2019-05-22T17:47:45.100Z,44.65
2019-05-22T17:50:26.207Z,45.22
2019-05-22T17:52:44.575Z,45.38
2019-05-22T17:55:12.678Z,43.95
2019-05-22T17:57:40.553Z,43.90
2019-05-22T18:00:14.303Z,43.98
2019-05-22T18:02:41.576Z,44.70
2019-05-22T18:05:08.971Z,44.33
2019-05-22T18:07:37.953Z,44.91
2019-05-22T18:10:05.655Z,44.21
2019-05-22T18:12:32.622Z,44.12
2019-05-22T18:15:00.376Z,44.17
2019-05-22T18:17:27.381Z,46.43
2019-05-22T18:19:54.464Z,45.98
2019-05-22T18:22:22.193Z,45.70
2019-05-22T18:24:49.241Z,45.80
2019-05-22T18:27:16.302Z,45.05
2019-05-22T18:29:43.275Z,44.80
2019-05-22T18:32:10.812Z,45.15
2019-05-22T18:34:37.752Z,45.88
2019-05-22T18:37:04.803Z,46.02
2019-05-22T18:39:32.562Z,47.27
2019-05-22T18:41:59.510Z,47.01
2019-05-22T18:44:26.483Z,47.17
2019-05-22T18:46:53.922Z,47.23
2019-05-22T18:49:20.972Z,46.91
2019-05-22T18:51:48.058Z,47.03
2019-05-22T18:54:15.186Z,47.30
2019-05-22T18:56:42.439Z,47.29
2019-05-22T18:59:09.525Z,46.91
2019-05-22T19:01:36.681Z,47.04
2019-05-22T19:04:03.738Z,46.58
2019-05-22T19:06:31.117Z,46.79
2019-05-22T19:08:58.199Z,46.72
2019-05-22T19:11:25.187Z,46.39
2019-05-22T19:13:52.403Z,46.57
2019-05-22T19:16:19.531Z,46.88
2019-05-22T19:18:46.508Z,46.43
2019-05-22T19:21:13.680Z,45.79
2019-05-22T19:23:40.781Z,46.03
2019-05-22T19:26:07.754Z,45.88
2019-05-22T19:28:43.652Z,46.06
2019-05-22T19:31:04.492Z,46.19
2019-05-22T19:33:31.466Z,46.10
2019-05-22T19:35:58.445Z,46.10
2019-05-22T19:38:25.550Z,46.11
2019-05-22T19:40:52.577Z,46.21
2019-05-22T19:43:19.752Z,46.23
2019-05-22T19:45:46.852Z,46.30
2019-05-22T19:48:14.312Z,46.29
2019-05-22T19:50:41.909Z,46.52
2019-05-22T19:53:18.648Z,47.07
2019-05-22T19:55:40.227Z,47.18
2019-05-22T19:58:08.615Z,47.55
2019-05-22T20:00:35.940Z,47.92
2019-05-22T20:03:04.122Z,48.57
2019-05-22T20:05:33.396Z,48.87
2019-05-22T20:08:00.379Z,48.95
2019-05-22T20:10:27.460Z,49.10
2019-05-22T20:12:55.039Z,49.30
2019-05-22T20:15:22.199Z,49.60
2019-05-22T20:17:49.628Z,49.74
2019-05-22T20:20:18.466Z,49.68
2019-05-22T20:22:46.855Z,49.73
2019-05-22T20:25:15.616Z,49.87
2019-05-22T20:27:43.743Z,50.08
2019-05-22T20:30:13.588Z,50.32
2019-05-22T20:32:41.077Z,50.55
2019-05-22T20:35:09.647Z,50.77
2019-05-22T20:37:37.481Z,51.02
2019-05-22T20:40:04.962Z,51.26
2019-05-22T20:42:32.282Z,51.54
2019-05-22T20:44:59.596Z,51.82
2019-05-22T20:47:27.669Z,52.02
2019-05-22T20:49:54.679Z,52.26
2019-05-22T20:52:24.079Z,52.25
2019-05-22T20:54:51.995Z,52.32
2019-05-22T20:57:20.685Z,52.53
2019-05-22T20:59:47.605Z,52.68
2019-05-22T21:02:16.079Z,52.84
2019-05-22T21:04:45.507Z,52.97
2019-05-22T21:07:15.144Z,53.01
2019-05-22T21:09:43.626Z,53.03
2019-05-22T21:12:12.756Z,52.96
2019-05-22T21:14:40.444Z,52.99
2019-05-22T21:17:08.819Z,52.88
2019-05-22T21:19:36.007Z,52.88
2019-05-22T21:22:04.449Z,52.97
2019-05-22T21:24:31.429Z,53.03
2019-05-22T21:26:58.433Z,53.12
2019-05-22T21:29:25.401Z,53.29
2019-05-22T21:31:52.380Z,53.51
2019-05-22T21:34:19.437Z,53.71
2019-05-22T21:36:46.908Z,53.85
2019-05-22T21:39:14.272Z,53.82
2019-05-22T21:41:41.446Z,53.75
2019-05-22T21:44:09.933Z,53.87
2019-05-22T21:46:37.186Z,54.01
2019-05-22T21:49:06.103Z,54.19
2019-05-22T21:51:33.774Z,54.28
2019-05-22T21:54:01.135Z,54.30
2019-05-22T21:56:29.045Z,54.37
2019-05-22T21:58:56.851Z,54.39
2019-05-22T22:01:37.989Z,54.42
2019-05-22T22:04:22.960Z,54.53
2019-05-22T22:06:51.934Z,54.67
2019-05-22T22:09:20.216Z,54.72
2019-05-22T22:11:48.059Z,54.74
2019-05-22T22:14:16.040Z,54.76
2019-05-22T22:16:43.312Z,54.87
2019-05-22T22:19:11.893Z,55.07
2019-05-22T22:21:39.248Z,55.24
2019-05-22T22:24:06.709Z,55.43
2019-05-22T22:26:33.790Z,55.59
2019-05-22T22:29:00.693Z,55.73
2019-05-22T22:31:29.934Z,55.86
2019-05-22T22:34:06.333Z,55.88
2019-05-22T22:36:34.616Z,55.90
2019-05-22T22:39:03.107Z,55.98
2019-05-22T22:41:30.423Z,56.07
2019-05-22T22:43:58.577Z,56.21
2019-05-22T22:46:42.590Z,56.36
2019-05-22T22:49:14.056Z,56.42
2019-05-22T22:51:41.809Z,56.60
2019-05-22T22:54:11.997Z,56.78
2019-05-22T22:56:39.177Z,56.81
2019-05-22T22:59:06.839Z,56.83
2019-05-22T23:01:37.149Z,56.90
2019-05-22T23:04:04.824Z,56.97
2019-05-22T23:06:35.862Z,57.09
2019-05-22T23:09:03.699Z,57.21
2019-05-22T23:11:32.092Z,57.31
2019-05-22T23:14:02.303Z,57.44
2019-05-22T23:16:29.356Z,57.60
2019-05-22T23:19:27.768Z,57.69
2019-05-22T23:21:55.624Z,57.82
2019-05-22T23:24:24.151Z,57.93
2019-05-22T23:26:51.270Z,58.01
2019-05-22T23:29:18.909Z,57.98
2019-05-22T23:31:45.909Z,57.91
2019-05-22T23:34:12.899Z,57.91
2019-05-22T23:36:40.050Z,57.80
2019-05-22T23:39:10.436Z,57.76
2019-05-22T23:41:39.016Z,57.90
2019-05-22T23:44:10.557Z,57.90
2019-05-22T23:46:37.920Z,57.92
2019-05-22T23:49:05.503Z,57.92
2019-05-22T23:51:32.467Z,57.92
2019-05-22T23:54:01.964Z,57.99
2019-05-22T23:56:29.863Z,58.12
2019-05-22T23:58:58.296Z,58.16
